createdAt,value
2023-01-17T00:00:03.919Z,46.50
2023-01-17T00:02:35.992Z,51.80
2023-01-17T00:05:28.168Z,50.80
2023-01-17T00:08:17.555Z,54.80
2023-01-17T00:10:49.504Z,58.90
2023-01-17T00:13:21.384Z,56.70
2023-01-17T00:15:53.519Z,49.40
2023-01-17T00:18:25.396Z,58.00
2023-01-17T00:21:26.691Z,50.10
2023-01-17T00:24:16.145Z,50.10
2023-01-17T00:27:02.188Z,48.20
2023-01-17T00:29:32.845Z,49.00
2023-01-17T00:32:03.803Z,47.20
2023-01-17T00:34:34.516Z,50.50
2023-01-17T00:37:05.305Z,50.20
2023-01-17T00:39:36.061Z,53.10
2023-01-17T00:42:06.871Z,48.60
2023-01-17T00:44:56.086Z,52.00
2023-01-17T00:47:45.549Z,48.20
2023-01-17T00:50:42.069Z,49.80
2023-01-17T00:53:31.813Z,47.50
2023-01-17T00:56:22.741Z,50.00
2023-01-17T00:59:14.389Z,50.20
2023-01-17T01:02:03.973Z,46.80
2023-01-17T01:04:53.651Z,46.80
2023-01-17T01:07:43.327Z,47.80
2023-01-17T01:10:37.200Z,49.00
2023-01-17T01:13:26.531Z,48.40
2023-01-17T01:16:17.858Z,47.60
2023-01-17T01:21:55.661Z,47.20
2023-01-17T01:24:45.398Z,46.00
2023-01-17T01:27:34.991Z,46.10
2023-01-17T01:30:32.279Z,48.80
2023-01-17T01:33:21.115Z,43.20
2023-01-17T01:35:55.098Z,46.10
2023-01-17T01:38:27.867Z,45.70
2023-01-17T01:40:59.726Z,43.70
2023-01-17T01:43:46.865Z,49.90
2023-01-17T01:46:22.003Z,49.10
2023-01-17T01:48:57.859Z,51.80
2023-01-17T01:51:34.814Z,41.90
2023-01-17T01:54:12.796Z,43.30
2023-01-17T01:56:46.449Z,43.90
2023-01-17T01:59:21.384Z,46.50
2023-01-17T02:01:57.056Z,41.00
2023-01-17T02:04:30.554Z,49.60
2023-01-17T02:07:08.453Z,51.40
2023-01-17T02:09:40.588Z,47.80
2023-01-17T02:12:13.471Z,49.20
2023-01-17T02:14:45.373Z,49.20
2023-01-17T02:17:31.243Z,52.30
2023-01-17T02:20:32.245Z,50.30
2023-01-17T02:23:34.371Z,48.70
2023-01-17T02:26:46.063Z,48.40
2023-01-17T02:29:58.615Z,48.80
2023-01-17T02:32:39.501Z,45.80
2023-01-17T02:35:21.676Z,44.70
2023-01-17T02:38:04.392Z,44.90
2023-01-17T02:40:40.806Z,41.30
2023-01-17T02:43:15.876Z,48.00
2023-01-17T02:45:47.719Z,44.20
2023-01-17T02:48:25.844Z,43.50
2023-01-17T02:51:12.818Z,42.10
2023-01-17T02:53:54.123Z,42.20
2023-01-17T02:56:41.731Z,45.90
2023-01-17T02:59:26.494Z,42.70
2023-01-17T03:02:08.577Z,43.70
2023-01-17T03:04:48.824Z,50.80
2023-01-17T03:07:25.569Z,46.60
2023-01-17T03:10:02.023Z,46.80
2023-01-17T03:12:38.782Z,45.10
2023-01-17T03:15:16.133Z,48.30
2023-01-17T03:17:51.539Z,40.90
2023-01-17T03:20:27.868Z,44.60
2023-01-17T03:22:59.699Z,43.20
2023-01-17T03:25:32.343Z,43.00
2023-01-17T03:28:04.168Z,40.30
2023-01-17T03:30:36.049Z,41.60
2023-01-17T03:33:07.956Z,40.40
2023-01-17T03:35:39.822Z,42.80
2023-01-17T03:38:11.695Z,41.70
2023-01-17T03:40:43.887Z,40.60
2023-01-17T03:43:15.806Z,42.10
2023-01-17T03:45:49.781Z,42.10
2023-01-17T03:48:22.368Z,43.60
2023-01-17T03:50:54.495Z,43.90
2023-01-17T03:53:26.700Z,42.40
2023-01-17T03:55:58.536Z,42.30
2023-01-17T03:58:30.370Z,40.80
2023-01-17T04:01:02.420Z,37.80
2023-01-17T04:03:34.452Z,34.80
2023-01-17T04:06:06.875Z,36.90
2023-01-17T04:08:38.748Z,34.40
2023-01-17T04:11:10.710Z,35.60
2023-01-17T04:13:42.586Z,36.40
2023-01-17T04:16:18.286Z,37.60
2023-01-17T04:18:50.190Z,36.50
2023-01-17T04:21:22.084Z,33.40
2023-01-17T04:23:53.921Z,29.80
2023-01-17T04:26:25.791Z,27.80
2023-01-17T04:28:57.583Z,30.90
2023-01-17T04:31:29.742Z,29.30
2023-01-17T04:34:01.885Z,28.60
2023-01-17T04:36:34.182Z,26.50
2023-01-17T04:39:06.680Z,25.30
2023-01-17T04:41:39.096Z,23.20
2023-01-17T04:44:10.964Z,23.70
2023-01-17T04:46:42.914Z,19.70
2023-01-17T04:49:14.762Z,22.80
2023-01-17T04:51:46.683Z,17.90
2023-01-17T04:54:18.624Z,20.90
2023-01-17T04:56:50.495Z,19.20
2023-01-17T04:59:22.390Z,17.60
2023-01-17T05:01:54.728Z,19.30
2023-01-17T05:04:26.780Z,18.70
2023-01-17T05:06:58.646Z,17.70
2023-01-17T05:09:30.486Z,19.30
2023-01-17T05:12:02.379Z,20.60
2023-01-17T05:14:34.606Z,14.20
2023-01-17T05:17:06.553Z,16.70
2023-01-17T05:19:38.679Z,13.10
2023-01-17T05:22:15.961Z,14.10
2023-01-17T05:24:49.162Z,13.20
2023-01-17T05:27:21.022Z,12.50
2023-01-17T05:29:53.439Z,12.20
2023-01-17T05:32:25.313Z,10.00
2023-01-17T05:34:57.118Z,15.30
2023-01-17T05:37:28.986Z,11.00
2023-01-17T05:40:00.925Z,10.10
2023-01-17T05:42:32.863Z,10.70
2023-01-17T05:45:04.808Z,12.60
2023-01-17T05:47:36.673Z,9.50
2023-01-17T05:50:18.473Z,12.30
2023-01-17T05:52:54.804Z,11.10
2023-01-17T05:55:27.568Z,10.00
2023-01-17T05:57:59.873Z,11.20
2023-01-17T06:00:32.883Z,10.20
2023-01-17T06:03:05.402Z,12.50
2023-01-17T06:05:37.442Z,12.10
2023-01-17T06:08:11.349Z,10.50
2023-01-17T06:10:43.211Z,11.20
2023-01-17T06:13:20.919Z,9.50
2023-01-17T06:15:52.796Z,10.40
2023-01-17T06:18:24.784Z,10.20
2023-01-17T06:20:56.815Z,7.60
2023-01-17T06:23:29.423Z,7.20
2023-01-17T06:26:05.020Z,9.20
2023-01-17T06:28:37.013Z,7.10
2023-01-17T06:31:12.209Z,6.40
2023-01-17T06:33:44.417Z,6.50
2023-01-17T06:36:16.355Z,5.40
2023-01-17T06:38:50.662Z,7.10
2023-01-17T06:41:23.328Z,8.70
2023-01-17T06:43:56.993Z,6.70
2023-01-17T06:46:28.952Z,6.20
2023-01-17T06:49:00.968Z,8.10
2023-01-17T06:51:32.828Z,6.60
2023-01-17T06:54:04.769Z,6.70
2023-01-17T06:56:36.768Z,6.00
2023-01-17T06:59:10.217Z,6.70
2023-01-17T07:01:42.598Z,5.40
2023-01-17T07:04:14.533Z,7.10
2023-01-17T07:06:46.399Z,5.70
2023-01-17T07:09:18.620Z,5.80
2023-01-17T07:11:51.948Z,7.80
2023-01-17T07:14:24.019Z,5.50
2023-01-17T07:16:56.067Z,7.00
2023-01-17T07:19:28.111Z,5.60
2023-01-17T07:21:59.961Z,7.00
2023-01-17T07:24:32.904Z,5.20
2023-01-17T07:27:04.887Z,4.60
2023-01-17T07:29:36.786Z,5.20
2023-01-17T07:32:09.008Z,6.20
2023-01-17T07:34:40.983Z,4.30
2023-01-17T07:37:15.090Z,4.80
2023-01-17T07:39:47.307Z,3.50
2023-01-17T07:42:19.333Z,5.40
2023-01-17T07:44:51.287Z,2.90
2023-01-17T07:47:24.840Z,3.70
2023-01-17T07:49:56.806Z,2.40
2023-01-17T07:52:28.790Z,2.80
2023-01-17T07:55:00.757Z,3.80
2023-01-17T07:57:32.920Z,3.50
2023-01-17T08:00:17.295Z,3.80
2023-01-17T08:02:49.893Z,4.30
2023-01-17T08:05:21.888Z,5.90
2023-01-17T08:07:54.382Z,3.40
2023-01-17T08:10:33.219Z,3.40
2023-01-17T08:13:05.259Z,4.80
2023-01-17T08:15:37.152Z,3.50
2023-01-17T08:18:09.135Z,6.30
2023-01-17T08:20:42.668Z,7.00
2023-01-17T08:23:14.763Z,7.80
2023-01-17T08:25:46.608Z,8.70
2023-01-17T08:28:19.855Z,5.20
2023-01-17T08:30:51.840Z,6.90
2023-01-17T08:33:23.726Z,8.10
2023-01-17T08:35:56.031Z,8.40
2023-01-17T08:38:28.026Z,7.70
2023-01-17T08:41:02.858Z,10.50
2023-01-17T08:43:34.750Z,7.60
2023-01-17T08:46:07.156Z,6.50
2023-01-17T08:48:39.078Z,5.60
2023-01-17T08:51:12.045Z,8.60
2023-01-17T08:53:43.991Z,9.60
2023-01-17T08:56:16.168Z,10.50
2023-01-17T08:58:48.083Z,4.60
2023-01-17T09:01:20.563Z,5.00
2023-01-17T09:03:52.729Z,6.80
2023-01-17T09:06:25.323Z,5.40
2023-01-17T09:08:57.278Z,4.50
2023-01-17T09:11:29.333Z,5.10
2023-01-17T09:14:02.097Z,6.40
2023-01-17T09:16:34.689Z,5.10
2023-01-17T09:19:06.590Z,5.90
2023-01-17T09:21:38.764Z,5.00
2023-01-17T09:24:12.559Z,6.70
2023-01-17T09:26:44.590Z,3.80
2023-01-17T09:29:17.976Z,5.00
2023-01-17T09:31:50.071Z,5.60
2023-01-17T09:34:23.694Z,5.70
2023-01-17T09:36:57.108Z,6.80
2023-01-17T09:39:30.923Z,6.60
2023-01-17T09:42:10.072Z,6.40
2023-01-17T09:44:47.195Z,4.50
2023-01-17T09:47:29.734Z,9.80
2023-01-17T09:50:16.346Z,5.60
2023-01-17T09:52:48.711Z,7.80
2023-01-17T09:55:21.246Z,6.00
2023-01-17T10:01:48.518Z,4.90
2023-01-17T10:04:39.269Z,5.10
2023-01-17T10:07:20.766Z,3.60
2023-01-17T10:10:05.255Z,2.80
2023-01-17T10:12:52.014Z,4.60
2023-01-17T10:15:40.277Z,2.60
2023-01-17T10:18:31.120Z,4.60
2023-01-17T10:21:44.227Z,4.50
2023-01-17T10:24:40.011Z,4.90
2023-01-17T10:27:21.522Z,3.40
2023-01-17T10:29:54.479Z,4.00
2023-01-17T10:32:30.802Z,4.90
2023-01-17T10:35:14.197Z,4.00
2023-01-17T10:37:47.808Z,3.80
2023-01-17T10:40:29.241Z,4.50
2023-01-17T10:43:06.202Z,5.40
2023-01-17T10:45:43.735Z,3.60
2023-01-17T10:48:23.237Z,4.00
2023-01-17T10:51:02.636Z,7.10
2023-01-17T10:53:46.875Z,4.60
2023-01-17T10:56:28.099Z,5.40
2023-01-17T10:59:27.441Z,8.60
2023-01-17T11:01:59.907Z,6.00
2023-01-17T11:04:38.083Z,5.80
2023-01-17T11:07:16.282Z,4.70
2023-01-17T11:09:49.904Z,8.00
2023-01-17T11:12:28.144Z,6.00
2023-01-17T11:15:34.521Z,6.00
2023-01-17T11:18:19.945Z,4.20
2023-01-17T11:20:52.052Z,5.40
2023-01-17T11:23:30.857Z,4.30
2023-01-17T11:26:04.832Z,4.30
2023-01-17T11:28:37.996Z,4.10
2023-01-17T11:31:26.684Z,5.30
2023-01-17T11:34:17.545Z,6.00
2023-01-17T11:36:50.327Z,4.30
2023-01-17T11:39:28.409Z,4.30
2023-01-17T11:42:00.432Z,5.80
2023-01-17T11:44:34.225Z,3.90
2023-01-17T11:47:19.421Z,7.50
2023-01-17T11:49:52.177Z,5.00
2023-01-17T11:52:32.909Z,4.30
2023-01-17T11:55:07.118Z,4.30
2023-01-17T11:58:00.116Z,2.60
2023-01-17T12:00:39.037Z,3.80
2023-01-17T12:03:22.263Z,1.70
2023-01-17T12:06:02.923Z,3.30
2023-01-17T12:12:14.923Z,4.00
2023-01-17T12:15:01.104Z,6.00
2023-01-17T12:17:51.689Z,5.90
2023-01-17T12:20:35.590Z,3.90
2023-01-17T12:23:28.929Z,5.30
2023-01-17T12:26:19.592Z,5.90
2023-01-17T12:29:21.584Z,5.40
2023-01-17T12:32:00.533Z,3.30
2023-01-17T12:34:35.594Z,3.40
2023-01-17T12:37:19.146Z,4.00
2023-01-17T12:39:55.055Z,6.20
2023-01-17T12:42:30.957Z,6.80
2023-01-17T12:45:08.828Z,7.10
2023-01-17T12:47:48.338Z,6.10
2023-01-17T12:50:27.585Z,4.60
2023-01-17T12:53:05.742Z,6.30
2023-01-17T12:55:42.769Z,4.90
2023-01-17T12:58:21.130Z,7.30
2023-01-17T13:01:00.808Z,3.70
2023-01-17T13:03:44.780Z,4.10
2023-01-17T13:06:23.268Z,5.90
2023-01-17T13:09:02.102Z,5.30
2023-01-17T13:11:41.366Z,3.40
2023-01-17T13:14:13.573Z,3.20
2023-01-17T13:16:50.171Z,3.40
2023-01-17T13:19:32.595Z,3.10
2023-01-17T13:22:08.605Z,4.70
2023-01-17T13:24:50.830Z,4.60
2023-01-17T13:28:02.929Z,3.80
2023-01-17T13:31:09.733Z,4.80
2023-01-17T13:34:10.267Z,2.80
2023-01-17T13:36:57.167Z,3.80
2023-01-17T13:39:46.879Z,8.70
2023-01-17T13:42:30.600Z,5.90
2023-01-17T13:45:07.825Z,6.30
2023-01-17T13:47:42.798Z,9.00
2023-01-17T13:50:50.671Z,7.00
2023-01-17T13:53:56.952Z,9.70
2023-01-17T13:56:36.497Z,5.70
2023-01-17T13:59:31.016Z,5.60
2023-01-17T14:02:02.959Z,4.90
2023-01-17T14:05:09.416Z,3.80
2023-01-17T14:07:47.828Z,2.50
2023-01-17T14:10:29.699Z,5.30
2023-01-17T14:13:01.913Z,3.50
2023-01-17T14:15:36.719Z,3.20
2023-01-17T14:18:30.717Z,4.10
2023-01-17T14:21:20.358Z,6.40
2023-01-17T14:23:57.416Z,5.40
2023-01-17T14:26:37.796Z,5.20
2023-01-17T14:29:44.434Z,6.20
2023-01-17T14:32:18.728Z,8.00
2023-01-17T14:34:53.330Z,9.00
2023-01-17T14:37:34.373Z,11.00
2023-01-17T14:40:19.092Z,10.90
2023-01-17T14:43:02.731Z,10.10
2023-01-17T14:45:36.957Z,13.40
2023-01-17T14:48:16.667Z,16.30
2023-01-17T14:50:50.217Z,12.80
2023-01-17T14:53:28.263Z,9.60
2023-01-17T14:56:03.054Z,6.40
2023-01-17T14:58:36.639Z,6.50
2023-01-17T15:01:13.484Z,5.60
2023-01-17T15:03:48.205Z,9.00
2023-01-17T15:06:22.829Z,10.00
2023-01-17T15:08:55.106Z,6.90
2023-01-17T15:11:29.839Z,7.20
2023-01-17T15:14:06.019Z,8.10
2023-01-17T15:16:41.202Z,8.20
2023-01-17T15:19:15.533Z,8.70
2023-01-17T15:21:50.661Z,9.10
2023-01-17T15:24:25.287Z,8.40
2023-01-17T15:26:57.453Z,12.90
2023-01-17T15:29:33.424Z,9.90
2023-01-17T15:32:07.086Z,7.20
2023-01-17T15:34:40.776Z,9.70
2023-01-17T15:37:28.564Z,6.50
2023-01-17T15:40:18.829Z,10.20
2023-01-17T15:43:01.082Z,6.80
2023-01-17T15:45:36.357Z,8.60
2023-01-17T15:48:33.305Z,6.30
2023-01-17T15:51:05.228Z,6.60
2023-01-17T15:53:40.173Z,5.50
2023-01-17T15:56:31.046Z,6.40
2023-01-17T15:59:29.930Z,7.20
2023-01-17T16:02:02.029Z,63.50
2023-01-17T16:04:37.665Z,76.10
2023-01-17T16:07:19.666Z,45.70
2023-01-17T16:09:52.475Z,35.50
2023-01-17T16:12:24.367Z,33.10
2023-01-17T16:15:11.139Z,23.50
2023-01-17T16:17:47.384Z,16.10
2023-01-17T16:20:30.420Z,16.10
2023-01-17T16:23:02.784Z,15.10
2023-01-17T16:25:34.645Z,15.20
2023-01-17T16:28:08.424Z,12.40
2023-01-17T16:30:40.665Z,10.70
2023-01-17T16:33:14.098Z,13.10
2023-01-17T16:35:46.064Z,17.80
2023-01-17T16:38:19.923Z,22.60
2023-01-17T16:40:51.943Z,25.90
2023-01-17T16:43:24.197Z,36.70
2023-01-17T16:45:56.101Z,36.80
2023-01-17T16:48:28.197Z,38.40
2023-01-17T16:51:00.181Z,38.10
2023-01-17T16:53:31.973Z,42.10
2023-01-17T16:56:13.742Z,26.10
2023-01-17T16:58:45.749Z,18.80
2023-01-17T17:01:21.420Z,20.30
2023-01-17T17:03:53.417Z,21.40
2023-01-17T17:06:25.304Z,24.00
2023-01-17T17:08:57.214Z,28.20
2023-01-17T17:11:29.178Z,23.10
2023-01-17T17:14:01.072Z,20.50
2023-01-17T17:16:34.142Z,24.70
2023-01-17T17:19:07.977Z,22.90
2023-01-17T17:21:39.883Z,24.70
2023-01-17T17:24:15.196Z,25.30
2023-01-17T17:26:47.403Z,21.20
2023-01-17T17:29:19.334Z,21.50
2023-01-17T17:31:52.040Z,16.50
2023-01-17T17:34:26.003Z,18.50
2023-01-17T17:36:57.878Z,16.20
2023-01-17T17:39:30.248Z,18.80
2023-01-17T17:42:02.446Z,21.40
2023-01-17T17:44:34.770Z,16.30
2023-01-17T17:47:06.813Z,19.50
2023-01-17T17:49:38.707Z,21.00
2023-01-17T17:52:11.204Z,22.70
2023-01-17T17:54:43.969Z,27.60
2023-01-17T17:57:16.056Z,32.60
2023-01-17T17:59:47.937Z,33.40
2023-01-17T18:02:19.832Z,37.90
2023-01-17T18:04:52.480Z,35.90
2023-01-17T18:07:24.428Z,39.70
2023-01-17T18:09:56.304Z,48.00
2023-01-17T18:12:28.291Z,57.30
2023-01-17T18:15:00.695Z,68.20
2023-01-17T18:17:32.993Z,61.60
2023-01-17T18:20:07.627Z,59.50
2023-01-17T18:22:40.115Z,62.40
2023-01-17T18:25:12.801Z,65.30
2023-01-17T18:27:46.704Z,72.40
2023-01-17T18:30:28.447Z,87.90
2023-01-17T18:33:00.336Z,94.10
2023-01-17T18:35:32.358Z,98.70
2023-01-17T18:38:04.415Z,116.90
2023-01-17T18:40:38.223Z,140.10
2023-01-17T18:43:10.300Z,153.50
2023-01-17T18:45:42.323Z,146.30
2023-01-17T18:48:14.231Z,129.90
2023-01-17T18:50:55.209Z,139.20
2023-01-17T18:53:27.475Z,165.20
2023-01-17T18:56:02.428Z,152.20
2023-01-17T18:58:39.185Z,165.80
2023-01-17T19:01:13.913Z,155.90
2023-01-17T19:03:47.777Z,140.20
2023-01-17T19:06:22.210Z,149.10
2023-01-17T19:08:54.200Z,181.40
2023-01-17T19:11:27.634Z,160.10
2023-01-17T19:13:59.622Z,177.30
2023-01-17T19:16:34.833Z,199.70
2023-01-17T19:19:09.437Z,209.70
2023-01-17T19:21:41.327Z,196.80
2023-01-17T19:24:14.362Z,148.20
2023-01-17T19:26:47.828Z,142.70
2023-01-17T19:29:19.812Z,148.90
2023-01-17T19:31:51.818Z,141.70
2023-01-17T19:34:23.778Z,150.60
2023-01-17T19:36:56.431Z,122.00
2023-01-17T19:39:30.614Z,105.00
2023-01-17T19:42:02.473Z,104.40
2023-01-17T19:44:34.620Z,108.00
2023-01-17T19:47:06.564Z,96.60
2023-01-17T19:49:40.301Z,107.80
2023-01-17T19:52:12.917Z,113.90
2023-01-17T19:54:44.956Z,142.10
2023-01-17T19:57:17.980Z,151.90
2023-01-17T19:59:49.960Z,190.40
2023-01-17T20:02:22.108Z,185.70
2023-01-17T20:04:54.229Z,210.20
2023-01-17T20:07:26.311Z,257.90
2023-01-17T20:09:58.707Z,263.60
2023-01-17T20:12:31.510Z,266.00
2023-01-17T20:15:03.902Z,323.10
2023-01-17T20:17:36.056Z,335.30
2023-01-17T20:20:16.270Z,372.50
2023-01-17T20:22:48.427Z,382.00
2023-01-17T20:25:20.626Z,402.10
2023-01-17T20:27:52.710Z,387.40
2023-01-17T20:30:33.047Z,364.00
2023-01-17T20:33:05.512Z,343.80
2023-01-17T20:35:37.453Z,326.20
2023-01-17T20:38:10.727Z,316.40
2023-01-17T20:40:43.032Z,288.60
2023-01-17T20:43:15.165Z,269.40
2023-01-17T20:45:47.427Z,260.80
2023-01-17T20:48:20.860Z,217.10
2023-01-17T20:50:53.601Z,194.30
2023-01-17T20:53:25.650Z,160.30
2023-01-17T20:55:59.615Z,138.80
2023-01-17T20:58:32.103Z,139.50
2023-01-17T21:01:04.748Z,106.90
2023-01-17T21:03:37.982Z,124.70
2023-01-17T21:10:17.769Z,118.90
2023-01-17T21:12:49.909Z,94.40
2023-01-17T21:15:22.131Z,89.20
2023-01-17T21:17:55.027Z,79.40
2023-01-17T21:20:34.500Z,84.50
2023-01-17T21:23:08.722Z,81.30
2023-01-17T21:25:41.062Z,85.10
2023-01-17T21:28:13.160Z,88.60
2023-01-17T21:30:45.990Z,85.60
2023-01-17T21:33:18.375Z,84.30
2023-01-17T21:35:50.986Z,76.20
2023-01-17T21:38:23.289Z,80.40
2023-01-17T21:40:59.380Z,70.00
2023-01-17T21:43:32.277Z,82.20
2023-01-17T21:46:05.923Z,76.80
2023-01-17T21:48:39.494Z,83.70
2023-01-17T21:51:11.898Z,83.40
2023-01-17T21:53:44.285Z,77.90
2023-01-17T21:56:34.213Z,76.10
2023-01-17T21:59:06.663Z,83.80
2023-01-17T22:01:38.740Z,79.40
2023-01-17T22:04:13.336Z,75.90
2023-01-17T22:06:45.459Z,74.90
2023-01-17T22:09:17.857Z,68.10
2023-01-17T22:11:50.025Z,69.10
2023-01-17T22:14:22.387Z,62.30
2023-01-17T22:16:55.030Z,62.10
2023-01-17T22:19:27.356Z,67.30
2023-01-17T22:21:59.554Z,65.60
2023-01-17T22:24:31.757Z,90.10
2023-01-17T22:27:03.975Z,140.60
2023-01-17T22:29:36.579Z,207.90
2023-01-17T22:32:10.383Z,309.90
2023-01-17T22:34:43.125Z,267.90
2023-01-17T22:37:15.491Z,232.20
2023-01-17T22:39:47.659Z,213.60
2023-01-17T22:42:20.161Z,207.90
2023-01-17T22:44:52.401Z,186.20
2023-01-17T22:47:24.664Z,169.90
2023-01-17T22:49:56.870Z,173.20
2023-01-17T22:52:29.133Z,146.90
2023-01-17T22:55:01.628Z,137.40
2023-01-17T22:57:34.119Z,139.30
2023-01-17T23:00:15.151Z,119.00
2023-01-17T23:02:47.485Z,135.60
2023-01-17T23:05:20.579Z,118.50
2023-01-17T23:07:53.797Z,115.20
2023-01-17T23:10:50.713Z,121.00
2023-01-17T23:13:22.960Z,122.20
2023-01-17T23:16:12.752Z,124.00
2023-01-17T23:19:02.499Z,144.90
2023-01-17T23:21:48.708Z,151.20
2023-01-17T23:24:20.810Z,128.60
2023-01-17T23:27:06.635Z,122.80
2023-01-17T23:29:38.854Z,122.60
2023-01-17T23:32:11.027Z,111.10
2023-01-17T23:34:43.041Z,102.70
2023-01-17T23:37:15.094Z,106.80
2023-01-17T23:39:47.453Z,91.90
2023-01-17T23:42:37.062Z,83.70
2023-01-17T23:45:10.913Z,75.80
2023-01-17T23:47:45.626Z,80.10
2023-01-17T23:50:26.416Z,78.70
2023-01-17T23:52:58.906Z,75.90
2023-01-17T23:55:31.210Z,75.20
2023-01-17T23:58:03.791Z,81.50
